createdAt,value
2018-11-02T00:01:24.632Z,95911.00
2018-11-02T00:03:55.477Z,95924.00
2018-11-02T00:06:25.775Z,95915.00
2018-11-02T00:08:56.253Z,95921.00
2018-11-02T00:11:26.793Z,95922.00
2018-11-02T00:13:57.106Z,95924.00
2018-11-02T00:16:27.314Z,95928.00
2018-11-02T00:18:57.557Z,95930.00
2018-11-02T00:21:27.778Z,95925.00
2018-11-02T00:23:58.038Z,95924.00
2018-11-02T00:26:28.280Z,95925.00
2018-11-02T00:28:58.548Z,95916.00
2018-11-02T00:31:28.809Z,95913.00
2018-11-02T00:33:59.112Z,95917.00
2018-11-02T00:36:29.345Z,95912.00
2018-11-02T00:38:59.605Z,95909.00
2018-11-02T00:41:29.850Z,95907.00
2018-11-02T00:44:00.177Z,95919.00
2018-11-02T00:46:31.327Z,95921.00
2018-11-02T00:49:01.998Z,95916.00
2018-11-02T00:51:32.259Z,95922.00
2018-11-02T00:54:02.537Z,95922.00
2018-11-02T00:56:32.757Z,95919.00
2018-11-02T00:59:03.010Z,95925.00
2018-11-02T01:01:33.250Z,95923.00
2018-11-02T01:04:03.536Z,95926.00
2018-11-02T01:06:33.759Z,95928.00
2018-11-02T01:09:05.237Z,95923.00
2018-11-02T01:11:36.350Z,95920.00
2018-11-02T01:14:08.354Z,95928.00
2018-11-02T01:16:39.798Z,95925.00
2018-11-02T01:19:14.812Z,95925.00
2018-11-02T01:21:45.872Z,95923.00
2018-11-02T01:24:16.232Z,95925.00
2018-11-02T01:26:47.002Z,95927.00
2018-11-02T01:29:19.025Z,95930.00
2018-11-02T01:31:49.756Z,95921.00
2018-11-02T01:34:20.157Z,95934.00
2018-11-02T01:36:50.469Z,95931.00
2018-11-02T01:39:21.614Z,95932.00
2018-11-02T01:41:51.877Z,95938.00
2018-11-02T01:44:22.174Z,95936.00
2018-11-02T01:46:52.449Z,95941.00
2018-11-02T01:49:22.794Z,95943.00
2018-11-02T01:51:53.165Z,95944.00
2018-11-02T01:54:23.522Z,95942.00
2018-11-02T01:56:54.026Z,95937.00
2018-11-02T01:59:24.333Z,95929.00
2018-11-02T02:01:54.783Z,95925.00
2018-11-02T02:04:25.278Z,95926.00
2018-11-02T02:06:58.570Z,95933.00
2018-11-02T02:09:28.939Z,95937.00
2018-11-02T02:11:59.494Z,95939.00
2018-11-02T02:14:30.813Z,95940.00
2018-11-02T02:17:01.155Z,95939.00
2018-11-02T02:19:34.161Z,95949.00
2018-11-02T02:22:04.597Z,95952.00
2018-11-02T02:24:35.249Z,95962.00
2018-11-02T02:27:06.639Z,95973.00
2018-11-02T02:29:37.157Z,95959.00
2018-11-02T02:32:07.577Z,95957.00
2018-11-02T02:34:37.941Z,95950.00
2018-11-02T02:37:08.212Z,95954.00
2018-11-02T02:39:38.477Z,95951.00
2018-11-02T02:42:08.981Z,95938.00
2018-11-02T02:44:39.241Z,95932.00
2018-11-02T02:47:09.539Z,95930.00
2018-11-02T02:49:39.808Z,95934.00
2018-11-02T02:52:10.105Z,95938.00
2018-11-02T02:54:40.410Z,95928.00
2018-11-02T02:57:10.693Z,95945.00
2018-11-02T02:59:40.965Z,95950.00
2018-11-02T03:02:11.256Z,95948.00
2018-11-02T03:04:41.522Z,95951.00
2018-11-02T03:07:12.210Z,95967.00
2018-11-02T03:09:42.603Z,95976.00
2018-11-02T03:12:12.987Z,95964.00
2018-11-02T03:14:43.268Z,95987.00
2018-11-02T03:17:13.561Z,95971.00
2018-11-02T03:19:43.826Z,95973.00
2018-11-02T03:22:14.341Z,95977.00
2018-11-02T03:24:44.665Z,95975.00
2018-11-02T03:27:15.047Z,95979.00
2018-11-02T03:29:46.377Z,95973.00
2018-11-02T03:32:16.871Z,95967.00
2018-11-02T03:34:47.210Z,95970.00
2018-11-02T03:37:17.522Z,95964.00
2018-11-02T03:39:47.875Z,95965.00
2018-11-02T03:42:18.337Z,95965.00
2018-11-02T03:44:48.621Z,95963.00
2018-11-02T03:47:18.911Z,95958.00
2018-11-02T03:49:49.546Z,95967.00
2018-11-02T03:52:19.825Z,95966.00
2018-11-02T03:54:50.727Z,95966.00
2018-11-02T03:57:21.058Z,95975.00
2018-11-02T03:59:51.429Z,95983.00
2018-11-02T04:02:21.714Z,95987.00
2018-11-02T04:04:52.876Z,95979.00
2018-11-02T04:07:23.134Z,95994.00
2018-11-02T04:09:54.140Z,95994.00
2018-11-02T04:12:24.595Z,96002.00
2018-11-02T04:14:54.890Z,96002.00
2018-11-02T04:17:25.154Z,96009.00
2018-11-02T04:19:55.649Z,96008.00
2018-11-02T04:22:25.918Z,96008.00
2018-11-02T04:24:56.199Z,96003.00
2018-11-02T04:27:26.490Z,96003.00
2018-11-02T04:29:56.889Z,96014.00
2018-11-02T04:32:27.178Z,96005.00
2018-11-02T04:34:57.549Z,96016.00
2018-11-02T04:37:28.875Z,96010.00
2018-11-02T04:39:59.546Z,96013.00
2018-11-02T04:42:29.830Z,96015.00
2018-11-02T04:45:00.179Z,96022.00
2018-11-02T04:47:30.455Z,96032.00
2018-11-02T04:50:00.756Z,96028.00
2018-11-02T04:52:31.026Z,96020.00
2018-11-02T04:55:01.342Z,96025.00
2018-11-02T04:57:31.604Z,96020.00
2018-11-02T05:00:01.909Z,96027.00
2018-11-02T05:02:32.191Z,96025.00
2018-11-02T05:05:02.627Z,96032.00
2018-11-02T05:07:32.926Z,96046.00
2018-11-02T05:10:03.315Z,96038.00
2018-11-02T05:12:33.570Z,96054.00
2018-11-02T05:15:03.913Z,96069.00
2018-11-02T05:17:34.217Z,96064.00
2018-11-02T05:20:05.069Z,96064.00
2018-11-02T05:22:35.359Z,96056.00
2018-11-02T05:25:06.546Z,96044.00
2018-11-02T05:27:36.805Z,96060.00
2018-11-02T05:30:09.182Z,96063.00
2018-11-02T05:32:39.535Z,96062.00
2018-11-02T05:35:09.954Z,96055.00
2018-11-02T05:37:40.210Z,96065.00
2018-11-02T05:40:10.641Z,96077.00
2018-11-02T05:42:40.929Z,96068.00
2018-11-02T05:45:11.334Z,96064.00
2018-11-02T05:47:41.667Z,96060.00
2018-11-02T05:50:11.971Z,96063.00
2018-11-02T05:52:42.255Z,96050.00
2018-11-02T05:55:12.568Z,96062.00
2018-11-02T05:57:42.814Z,96062.00
2018-11-02T06:00:13.358Z,96063.00
2018-11-02T06:02:43.653Z,96075.00
2018-11-02T06:05:13.958Z,96072.00
2018-11-02T06:07:44.274Z,96081.00
2018-11-02T06:10:14.541Z,96090.00
2018-11-02T06:12:44.817Z,96103.00
2018-11-02T06:15:15.108Z,96097.00
2018-11-02T06:17:45.398Z,96104.00
2018-11-02T06:20:15.689Z,96106.00
2018-11-02T06:22:45.961Z,96108.00
2018-11-02T06:25:16.277Z,96113.00
2018-11-02T06:27:46.533Z,96114.00
2018-11-02T06:30:16.840Z,96128.00
2018-11-02T06:32:47.254Z,96126.00
2018-11-02T06:35:17.458Z,96130.00
2018-11-02T06:37:47.670Z,96125.00
2018-11-02T06:40:17.923Z,96131.00
2018-11-02T06:42:48.173Z,96131.00
2018-11-02T06:45:18.496Z,96130.00
2018-11-02T06:47:48.750Z,96139.00
2018-11-02T06:50:19.022Z,96142.00
2018-11-02T06:52:49.303Z,96146.00
2018-11-02T06:55:19.669Z,96149.00
2018-11-02T06:57:49.927Z,96136.00
2018-11-02T07:00:20.463Z,96144.00
2018-11-02T07:02:50.655Z,96154.00
2018-11-02T07:05:20.948Z,96149.00
2018-11-02T07:07:51.273Z,96150.00
2018-11-02T07:10:21.509Z,96152.00
2018-11-02T07:12:51.759Z,96158.00
2018-11-02T07:15:22.086Z,96160.00
2018-11-02T07:17:52.365Z,96175.00
2018-11-02T07:20:22.683Z,96170.00
2018-11-02T07:22:52.981Z,96176.00
2018-11-02T07:25:23.582Z,96171.00
2018-11-02T07:27:53.683Z,96182.00
2018-11-02T07:30:23.967Z,96184.00
2018-11-02T07:32:54.219Z,96182.00
2018-11-02T07:35:24.741Z,96194.00
2018-11-02T07:37:55.067Z,96184.00
2018-11-02T07:40:25.514Z,96188.00
2018-11-02T07:42:55.962Z,96189.00
2018-11-02T07:45:26.230Z,96197.00
2018-11-02T07:47:56.669Z,96199.00
2018-11-02T07:50:26.989Z,96197.00
2018-11-02T07:52:57.367Z,96187.00
2018-11-02T07:55:27.691Z,96183.00
2018-11-02T07:57:57.985Z,96176.00
2018-11-02T08:00:28.266Z,96174.00
2018-11-02T08:02:58.779Z,96176.00
2018-11-02T08:05:31.194Z,96179.00
2018-11-02T08:08:01.525Z,96188.00
2018-11-02T08:10:31.830Z,96179.00
2018-11-02T08:13:02.140Z,96175.00
2018-11-02T08:15:32.414Z,96183.00
2018-11-02T08:18:02.782Z,96175.00
2018-11-02T08:20:33.187Z,96185.00
2018-11-02T08:23:03.577Z,96177.00
2018-11-02T08:25:34.041Z,96173.00
2018-11-02T08:28:05.014Z,96171.00
2018-11-02T08:30:35.710Z,96184.00
2018-11-02T08:33:06.350Z,96177.00
2018-11-02T08:35:36.713Z,96175.00
2018-11-02T08:38:07.383Z,96175.00
2018-11-02T08:40:37.862Z,96170.00
2018-11-02T08:43:08.180Z,96172.00
2018-11-02T08:45:38.472Z,96164.00
2018-11-02T08:48:09.117Z,96174.00
2018-11-02T08:50:39.426Z,96182.00
2018-11-02T08:53:09.765Z,96175.00
2018-11-02T08:55:40.080Z,96172.00
2018-11-02T08:58:10.486Z,96172.00
2018-11-02T09:00:40.826Z,96185.00
2018-11-02T09:03:11.161Z,96182.00
2018-11-02T09:05:41.456Z,96185.00
2018-11-02T09:08:11.786Z,96196.00
2018-11-02T09:10:42.345Z,96189.00
2018-11-02T09:13:12.741Z,96185.00
2018-11-02T09:15:43.083Z,96192.00
2018-11-02T09:18:13.482Z,96191.00
2018-11-02T09:20:43.762Z,96190.00
2018-11-02T09:23:14.316Z,96183.00
2018-11-02T09:25:44.669Z,96175.00
2018-11-02T09:28:14.966Z,96184.00
2018-11-02T09:30:45.372Z,96189.00
2018-11-02T09:33:16.124Z,96189.00
2018-11-02T09:35:46.629Z,96182.00
2018-11-02T09:38:16.995Z,96182.00
2018-11-02T09:40:47.258Z,96174.00
2018-11-02T09:43:19.757Z,96181.00
2018-11-02T09:45:50.105Z,96189.00
2018-11-02T09:48:20.781Z,96187.00
2018-11-02T09:50:51.013Z,96200.00
2018-11-02T09:53:21.803Z,96195.00
2018-11-02T09:55:53.261Z,96200.00
2018-11-02T09:58:23.668Z,96196.00
2018-11-02T10:00:54.108Z,96203.00
2018-11-02T10:03:24.406Z,96206.00
2018-11-02T10:05:54.859Z,96206.00
2018-11-02T10:08:25.572Z,96194.00
2018-11-02T10:10:55.846Z,96197.00
2018-11-02T10:13:26.948Z,96191.00
2018-11-02T10:15:57.290Z,96183.00
2018-11-02T10:18:27.627Z,96186.00
2018-11-02T10:20:58.271Z,96165.00
2018-11-02T10:23:28.889Z,96161.00
2018-11-02T10:25:59.459Z,96164.00
2018-11-02T10:28:29.880Z,96168.00
2018-11-02T10:31:01.525Z,96166.00
2018-11-02T10:33:31.993Z,96157.00
2018-11-02T10:36:03.040Z,96152.00
2018-11-02T10:38:33.449Z,96154.00
2018-11-02T10:41:04.396Z,96152.00
2018-11-02T10:43:34.850Z,96154.00
2018-11-02T10:46:05.237Z,96156.00
2018-11-02T10:48:35.639Z,96165.00
2018-11-02T10:51:06.120Z,96160.00
2018-11-02T10:53:36.395Z,96155.00
2018-11-02T10:56:06.834Z,96147.00
2018-11-02T10:58:37.136Z,96154.00
2018-11-02T11:01:12.573Z,96159.00
2018-11-02T11:03:42.863Z,96169.00
2018-11-02T11:06:13.223Z,96169.00
2018-11-02T11:08:43.521Z,96169.00
2018-11-02T11:11:13.838Z,96173.00
2018-11-02T11:13:44.544Z,96180.00
2018-11-02T11:16:14.421Z,96181.00
2018-11-02T11:18:44.737Z,96166.00
2018-11-02T11:21:15.111Z,96161.00
2018-11-02T11:23:45.361Z,96156.00
2018-11-02T11:26:15.641Z,96158.00
2018-11-02T11:28:45.990Z,96157.00
2018-11-02T11:31:16.284Z,96144.00
2018-11-02T11:33:46.647Z,96117.00
2018-11-02T11:36:16.962Z,96109.00
2018-11-02T11:38:47.278Z,96118.00
2018-11-02T11:41:17.566Z,96122.00
2018-11-02T11:43:47.958Z,96137.00
2018-11-02T11:46:18.255Z,96148.00
2018-11-02T11:48:48.749Z,96160.00
2018-11-02T11:51:18.936Z,96168.00
2018-11-02T11:53:49.251Z,96162.00
2018-11-02T11:56:19.534Z,96164.00
2018-11-02T11:58:49.826Z,96175.00
2018-11-02T12:01:20.114Z,96184.00
2018-11-02T12:03:50.422Z,96180.00
2018-11-02T12:06:20.724Z,96195.00
2018-11-02T12:08:51.035Z,96182.00
2018-11-02T12:11:21.871Z,96159.00
2018-11-02T12:13:52.337Z,96157.00
2018-11-02T12:16:22.658Z,96161.00
2018-11-02T12:18:52.999Z,96166.00
2018-11-02T12:21:23.323Z,96158.00
2018-11-02T12:23:53.642Z,96154.00
2018-11-02T12:26:24.822Z,96162.00
2018-11-02T12:28:55.325Z,96163.00
2018-11-02T12:31:25.586Z,96179.00
2018-11-02T12:33:55.889Z,96184.00
2018-11-02T12:36:27.108Z,96174.00
2018-11-02T12:38:58.193Z,96180.00
2018-11-02T12:41:28.741Z,96169.00
2018-11-02T12:43:59.244Z,96173.00
2018-11-02T12:46:29.489Z,96168.00
2018-11-02T12:49:00.051Z,96166.00
2018-11-02T12:51:30.076Z,96174.00
2018-11-02T12:54:00.361Z,96168.00
2018-11-02T12:56:30.630Z,96176.00
2018-11-02T12:59:01.017Z,96173.00
2018-11-02T13:01:31.290Z,96175.00
2018-11-02T13:04:01.588Z,96182.00
2018-11-02T13:06:31.922Z,96180.00
2018-11-02T13:09:02.214Z,96180.00
2018-11-02T13:11:32.518Z,96187.00
2018-11-02T13:14:04.567Z,96132.00
2018-11-02T13:16:34.959Z,96186.00
2018-11-02T13:19:05.947Z,96185.00
2018-11-02T13:21:36.334Z,96187.00
2018-11-02T13:24:07.997Z,96187.00
2018-11-02T13:26:39.019Z,96188.00
2018-11-02T13:29:09.362Z,96184.00
2018-11-02T13:31:39.707Z,96180.00
2018-11-02T13:34:10.043Z,96195.00
2018-11-02T13:36:40.439Z,96201.00
2018-11-02T13:39:12.480Z,96219.00
2018-11-02T13:41:43.386Z,96221.00
2018-11-02T13:44:13.667Z,96222.00
2018-11-02T13:46:43.935Z,96219.00
2018-11-02T13:49:14.567Z,96219.00
2018-11-02T13:51:45.065Z,96222.00
2018-11-02T13:54:15.353Z,96223.00
2018-11-02T13:56:45.621Z,96232.00
2018-11-02T13:59:15.940Z,96247.00
2018-11-02T14:01:46.148Z,96237.00
2018-11-02T14:04:17.724Z,96246.00
2018-11-02T14:06:48.021Z,96247.00
2018-11-02T14:09:18.315Z,96241.00
2018-11-02T14:11:48.620Z,96246.00
2018-11-02T14:14:18.886Z,96235.00
2018-11-02T14:16:49.127Z,96233.00
2018-11-02T14:19:19.437Z,96230.00
2018-11-02T14:21:49.723Z,96215.00
2018-11-02T14:24:20.043Z,96218.00
2018-11-02T14:26:50.298Z,96219.00
2018-11-02T14:29:20.638Z,96223.00
2018-11-02T14:31:50.887Z,96219.00
2018-11-02T14:34:21.224Z,96236.00
2018-11-02T14:36:51.742Z,96232.00
2018-11-02T14:39:22.120Z,96234.00
2018-11-02T14:41:52.406Z,96235.00
2018-11-02T14:44:22.704Z,96241.00
2018-11-02T14:46:52.984Z,96251.00
2018-11-02T14:49:23.339Z,96242.00
2018-11-02T14:51:53.658Z,96248.00
2018-11-02T14:54:23.958Z,96248.00
2018-11-02T14:56:54.251Z,96246.00
2018-11-02T14:59:24.578Z,96243.00
2018-11-02T15:01:54.858Z,96242.00
2018-11-02T15:04:25.153Z,96248.00
2018-11-02T15:06:55.450Z,96242.00
2018-11-02T15:09:25.761Z,96249.00
2018-11-02T15:11:56.100Z,96255.00
2018-11-02T15:14:26.425Z,96248.00
2018-11-02T15:16:56.761Z,96260.00
2018-11-02T15:19:27.078Z,96258.00
2018-11-02T15:21:57.391Z,96250.00
2018-11-02T15:24:27.717Z,96265.00
2018-11-02T15:26:57.994Z,96279.00
2018-11-02T15:29:28.286Z,96291.00
2018-11-02T15:31:58.583Z,96292.00
2018-11-02T15:34:28.966Z,96281.00
2018-11-02T15:36:59.635Z,96279.00
2018-11-02T15:39:30.001Z,96292.00
2018-11-02T15:42:00.273Z,96291.00
2018-11-02T15:44:30.648Z,96292.00
2018-11-02T15:47:00.889Z,96313.00
2018-11-02T15:49:31.184Z,96310.00
2018-11-02T15:52:01.545Z,96315.00
2018-11-02T15:54:31.835Z,96324.00
2018-11-02T15:57:02.141Z,96327.00
2018-11-02T15:59:32.869Z,96329.00
2018-11-02T16:02:03.189Z,96337.00
2018-11-02T16:04:33.496Z,96349.00
2018-11-02T16:07:03.941Z,96352.00
2018-11-02T16:09:34.177Z,96360.00
2018-11-02T16:12:05.140Z,96368.00
2018-11-02T16:14:36.362Z,96373.00
2018-11-02T16:17:07.318Z,96382.00
2018-11-02T16:19:37.591Z,96383.00
2018-11-02T16:22:07.921Z,96390.00
2018-11-02T16:24:38.532Z,96392.00
2018-11-02T16:27:09.025Z,96397.00
2018-11-02T16:29:39.425Z,96410.00
2018-11-02T16:32:09.775Z,96410.00
2018-11-02T16:34:40.086Z,96400.00
2018-11-02T16:37:10.397Z,96399.00
2018-11-02T16:39:40.797Z,96401.00
2018-11-02T16:42:11.178Z,96405.00
2018-11-02T16:44:41.589Z,96402.00
2018-11-02T16:47:12.074Z,96404.00
2018-11-02T16:49:42.398Z,96400.00
2018-11-02T16:52:12.730Z,96399.00
2018-11-02T16:54:43.138Z,96415.00
2018-11-02T16:57:13.457Z,96414.00
2018-11-02T16:59:43.890Z,96413.00
2018-11-02T17:02:14.217Z,96422.00
2018-11-02T17:04:44.595Z,96437.00
2018-11-02T17:07:14.850Z,96443.00
2018-11-02T17:09:45.232Z,96431.00
2018-11-02T17:12:15.542Z,96435.00
2018-11-02T17:14:45.862Z,96441.00
2018-11-02T17:17:16.506Z,96443.00
2018-11-02T17:19:46.800Z,96436.00
2018-11-02T17:22:17.101Z,96436.00
2018-11-02T17:24:47.380Z,96440.00
2018-11-02T17:27:18.106Z,96431.00
2018-11-02T17:29:48.706Z,96445.00
2018-11-02T17:32:19.062Z,96440.00
2018-11-02T17:34:49.609Z,96441.00
2018-11-02T17:37:20.042Z,96461.00
2018-11-02T17:39:50.314Z,96459.00
2018-11-02T17:42:20.673Z,96458.00
2018-11-02T17:44:51.068Z,96458.00
2018-11-02T17:47:21.463Z,96447.00
2018-11-02T17:49:52.013Z,96451.00
2018-11-02T17:52:22.433Z,96459.00
2018-11-02T17:54:52.698Z,96463.00
2018-11-02T17:57:23.053Z,96463.00
2018-11-02T17:59:53.565Z,96453.00
2018-11-02T18:02:24.525Z,96456.00
2018-11-02T18:04:56.144Z,96473.00
2018-11-02T18:07:26.946Z,96474.00
2018-11-02T18:09:57.635Z,96463.00
2018-11-02T18:12:28.408Z,96458.00
2018-11-02T18:14:59.224Z,96459.00
2018-11-02T18:17:29.700Z,96468.00
2018-11-02T18:20:00.126Z,96475.00
2018-11-02T18:22:30.525Z,96480.00
2018-11-02T18:25:00.850Z,96484.00
2018-11-02T18:27:31.478Z,96489.00
2018-11-02T18:30:02.223Z,96487.00
2018-11-02T18:32:32.779Z,96503.00
2018-11-02T18:35:03.262Z,96505.00
2018-11-02T18:37:33.915Z,96507.00
2018-11-02T18:40:04.402Z,96517.00
2018-11-02T18:42:34.734Z,96514.00
2018-11-02T18:45:07.191Z,96527.00
2018-11-02T18:47:44.615Z,96525.00
2018-11-02T18:50:20.338Z,96529.00
2018-11-02T18:52:52.628Z,96526.00
2018-11-02T18:55:25.084Z,96535.00
2018-11-02T18:58:00.208Z,96523.00
2018-11-02T19:00:32.166Z,96520.00
2018-11-02T19:03:05.324Z,96516.00
2018-11-02T19:05:37.404Z,96514.00
2018-11-02T19:08:09.369Z,96520.00
2018-11-02T19:10:41.878Z,96519.00
2018-11-02T19:13:13.871Z,96522.00
2018-11-02T19:15:45.896Z,96531.00
2018-11-02T19:18:17.701Z,96535.00
2018-11-02T19:20:50.235Z,96531.00
2018-11-02T19:23:23.336Z,96528.00
2018-11-02T19:25:56.482Z,96530.00
2018-11-02T19:28:28.596Z,96524.00
2018-11-02T19:31:01.289Z,96529.00
2018-11-02T19:33:34.794Z,96529.00
2018-11-02T19:36:06.945Z,96538.00
2018-11-02T19:38:39.328Z,96544.00
2018-11-02T19:41:10.526Z,96549.00
2018-11-02T19:43:42.463Z,96551.00
2018-11-02T19:46:12.749Z,96554.00
2018-11-02T19:48:44.676Z,96551.00
2018-11-02T19:51:17.540Z,96565.00
2018-11-02T19:53:50.634Z,96543.00
2018-11-02T19:56:22.962Z,96548.00
2018-11-02T19:58:55.150Z,96556.00
2018-11-02T20:01:27.208Z,96559.00
2018-11-02T20:03:59.166Z,96559.00
2018-11-02T20:06:29.732Z,96553.00
2018-11-02T20:09:00.152Z,96553.00
2018-11-02T20:11:30.664Z,96551.00
2018-11-02T20:14:01.005Z,96551.00
2018-11-02T20:16:31.306Z,96552.00
2018-11-02T20:19:01.818Z,96545.00
2018-11-02T20:21:32.441Z,96548.00
2018-11-02T20:24:04.043Z,96550.00
2018-11-02T20:26:34.550Z,96557.00
2018-11-02T20:29:05.148Z,96544.00
2018-11-02T20:31:35.949Z,96567.00
2018-11-02T20:34:08.516Z,96569.00
2018-11-02T20:36:39.116Z,96567.00
2018-11-02T20:39:12.546Z,96569.00
2018-11-02T20:41:44.633Z,96579.00
2018-11-02T20:44:14.978Z,96578.00
2018-11-02T20:46:45.831Z,96579.00
2018-11-02T20:49:16.489Z,96590.00
2018-11-02T20:51:47.806Z,96585.00
2018-11-02T20:54:18.111Z,96590.00
2018-11-02T20:56:48.357Z,96590.00
2018-11-02T20:59:18.821Z,96586.00
2018-11-02T21:01:49.197Z,96587.00
2018-11-02T21:04:19.521Z,96600.00
2018-11-02T21:06:49.799Z,96598.00
2018-11-02T21:09:20.755Z,96590.00
2018-11-02T21:11:50.597Z,96599.00
2018-11-02T21:14:21.005Z,96597.00
2018-11-02T21:16:51.167Z,96600.00
2018-11-02T21:19:21.799Z,96603.00
2018-11-02T21:21:52.139Z,96601.00
2018-11-02T21:24:22.766Z,96602.00
2018-11-02T21:26:53.325Z,96608.00
2018-11-02T21:29:23.901Z,96613.00
2018-11-02T21:31:54.605Z,96608.00
2018-11-02T21:34:25.358Z,96608.00
2018-11-02T21:36:56.444Z,96610.00
2018-11-02T21:39:26.751Z,96613.00
2018-11-02T21:41:57.169Z,96611.00
2018-11-02T21:44:27.854Z,96605.00
2018-11-02T21:46:58.579Z,96613.00
2018-11-02T21:49:29.718Z,96602.00
2018-11-02T21:52:00.315Z,96614.00
2018-11-02T21:54:30.645Z,96620.00
2018-11-02T21:57:00.956Z,96613.00
2018-11-02T21:59:31.233Z,96609.00
2018-11-02T22:02:01.534Z,96610.00
2018-11-02T22:04:31.829Z,96608.00
2018-11-02T22:07:02.497Z,96613.00
2018-11-02T22:09:32.755Z,96604.00
2018-11-02T22:12:03.043Z,96598.00
2018-11-02T22:14:33.309Z,96595.00
2018-11-02T22:17:03.578Z,96594.00
2018-11-02T22:19:33.845Z,96596.00
2018-11-02T22:22:04.279Z,96596.00
2018-11-02T22:24:34.617Z,96594.00
2018-11-02T22:27:04.963Z,96598.00
2018-11-02T22:29:35.232Z,96601.00
2018-11-02T22:32:05.889Z,96606.00
2018-11-02T22:34:37.578Z,96608.00
2018-11-02T22:37:08.027Z,96615.00
2018-11-02T22:39:38.365Z,96608.00
2018-11-02T22:42:09.130Z,96622.00
2018-11-02T22:44:39.386Z,96620.00
2018-11-02T22:47:09.897Z,96627.00
2018-11-02T22:49:40.373Z,96623.00
2018-11-02T22:52:11.292Z,96618.00
2018-11-02T22:54:41.837Z,96617.00
2018-11-02T22:57:12.334Z,96619.00
2018-11-02T22:59:42.922Z,96628.00
2018-11-02T23:02:13.410Z,96622.00
2018-11-02T23:04:43.667Z,96616.00
2018-11-02T23:07:13.979Z,96627.00
2018-11-02T23:09:44.333Z,96622.00
2018-11-02T23:12:14.633Z,96615.00
2018-11-02T23:14:44.912Z,96614.00
2018-11-02T23:17:15.276Z,96616.00
2018-11-02T23:19:45.489Z,96616.00
2018-11-02T23:22:15.798Z,96623.00
2018-11-02T23:24:46.175Z,96623.00
2018-11-02T23:27:16.510Z,96613.00
2018-11-02T23:29:47.031Z,96615.00
2018-11-02T23:32:17.786Z,96620.00
2018-11-02T23:34:48.087Z,96618.00
2018-11-02T23:37:18.418Z,96624.00
2018-11-02T23:39:48.705Z,96609.00
2018-11-02T23:42:19.404Z,96611.00
2018-11-02T23:44:49.751Z,96612.00
2018-11-02T23:47:20.005Z,96620.00
2018-11-02T23:49:50.301Z,96621.00
2018-11-02T23:52:20.595Z,96614.00
2018-11-02T23:54:51.033Z,96611.00
2018-11-02T23:57:21.641Z,96616.00
2018-11-02T23:59:51.930Z,96627.00
